createdAt,value
2019-02-23T00:00:48.680Z,0.60
2019-02-23T00:03:21.993Z,0.70
2019-02-23T00:05:54.920Z,0.70
2019-02-23T00:08:29.338Z,0.70
2019-02-23T00:11:02.436Z,0.60
2019-02-23T00:13:35.546Z,0.60
2019-02-23T00:16:08.385Z,0.50
2019-02-23T00:18:41.907Z,0.40
2019-02-23T00:21:14.677Z,0.30
2019-02-23T00:23:47.850Z,0.10
2019-02-23T00:26:20.723Z,0.00
2019-02-23T00:28:53.740Z,-0.10
2019-02-23T00:31:26.811Z,-0.20
2019-02-23T00:34:00.207Z,-0.60
2019-02-23T00:36:33.304Z,-1.00
2019-02-23T00:39:07.488Z,-1.40
2019-02-23T00:41:40.748Z,-1.60
2019-02-23T00:44:13.750Z,-1.80
2019-02-23T00:46:46.838Z,-1.90
2019-02-23T00:49:19.903Z,-2.20
2019-02-23T00:51:52.815Z,-2.40
2019-02-23T00:54:25.854Z,-2.60
2019-02-23T00:56:58.750Z,-2.60
2019-02-23T00:59:31.739Z,-2.70
2019-02-23T01:02:05.657Z,-2.70
2019-02-23T01:04:38.574Z,-2.70
2019-02-23T01:07:12.036Z,-2.80
2019-02-23T01:09:45.258Z,-2.80
2019-02-23T01:12:19.932Z,-2.80
2019-02-23T01:14:52.814Z,-2.90
2019-02-23T01:17:25.917Z,-3.10
2019-02-23T01:19:59.058Z,-3.00
2019-02-23T01:22:32.354Z,-3.10
2019-02-23T01:25:05.635Z,-3.10
2019-02-23T01:27:38.677Z,-3.00
2019-02-23T01:30:13.739Z,-3.10
2019-02-23T01:32:47.094Z,-3.20
2019-02-23T01:35:20.714Z,-3.30
2019-02-23T01:37:53.850Z,-3.40
2019-02-23T01:40:27.897Z,-3.60
2019-02-23T01:43:01.322Z,-3.80
2019-02-23T01:45:42.379Z,-3.80
2019-02-23T01:48:10.051Z,-3.80
2019-02-23T01:50:43.250Z,-3.80
2019-02-23T01:53:16.117Z,-3.80
2019-02-23T01:55:49.200Z,-3.80
2019-02-23T01:58:22.077Z,-4.00
2019-02-23T02:00:54.976Z,-4.10
2019-02-23T02:03:27.857Z,-4.10
2019-02-23T02:06:01.138Z,-4.20
2019-02-23T02:08:36.367Z,-4.30
2019-02-23T02:11:09.404Z,-4.40
2019-02-23T02:13:42.384Z,-4.50
2019-02-23T02:16:16.312Z,-4.60
2019-02-23T02:18:49.715Z,-4.60
2019-02-23T02:21:22.592Z,-4.60
2019-02-23T02:23:55.407Z,-4.50
2019-02-23T02:26:29.063Z,-4.40
2019-02-23T02:29:01.791Z,-4.40
2019-02-23T02:31:34.788Z,-4.50
2019-02-23T02:34:19.137Z,-4.70
2019-02-23T02:36:52.212Z,-4.80
2019-02-23T02:39:25.210Z,-5.10
2019-02-23T02:41:58.223Z,-5.10
2019-02-23T02:44:30.917Z,-5.10
2019-02-23T02:47:03.914Z,-5.10
2019-02-23T02:49:36.925Z,-5.10
2019-02-23T02:52:09.864Z,-5.10
2019-02-23T02:54:42.941Z,-5.10
2019-02-23T02:57:16.098Z,-5.00
2019-02-23T02:59:49.259Z,-5.00
2019-02-23T03:02:23.182Z,-5.00
2019-02-23T03:04:56.553Z,-5.10
2019-02-23T03:07:29.500Z,-5.20
2019-02-23T03:10:02.461Z,-5.10
2019-02-23T03:12:35.242Z,-5.30
2019-02-23T03:15:09.464Z,-5.30
2019-02-23T03:17:42.476Z,-5.40
2019-02-23T03:20:15.526Z,-5.40
2019-02-23T03:22:48.717Z,-5.40
2019-02-23T03:25:25.144Z,-5.40
2019-02-23T03:27:58.074Z,-5.40
2019-02-23T03:30:32.349Z,-5.50
2019-02-23T03:33:05.340Z,-5.40
2019-02-23T03:35:38.225Z,-5.40
2019-02-23T03:38:11.113Z,-5.50
2019-02-23T03:40:44.025Z,-5.50
2019-02-23T03:43:17.347Z,-5.50
2019-02-23T03:45:50.629Z,-5.40
2019-02-23T03:51:02.456Z,-5.30
2019-02-23T03:53:34.726Z,-5.30
2019-02-23T03:56:06.720Z,-5.30
2019-02-23T03:58:38.996Z,-5.30
2019-02-23T04:01:11.096Z,-5.30
2019-02-23T04:15:11.528Z,-5.20
2019-02-23T04:17:45.058Z,-5.10
2019-02-23T04:32:54.301Z,-5.30
2019-02-23T04:35:27.783Z,-5.40
2019-02-23T04:38:00.748Z,-5.40
2019-02-23T04:40:33.950Z,-5.50
2019-02-23T04:43:07.188Z,-5.50
2019-02-23T04:45:40.646Z,-5.50
2019-02-23T04:48:13.801Z,-5.40
2019-02-23T04:50:46.835Z,-5.40
2019-02-23T04:53:20.781Z,-5.40
2019-02-23T04:55:54.356Z,-5.40
2019-02-23T04:58:27.553Z,-5.40
2019-02-23T05:01:01.204Z,-5.40
2019-02-23T05:03:34.681Z,-5.40
2019-02-23T05:06:07.986Z,-5.40
2019-02-23T05:08:41.332Z,-5.40
2019-02-23T05:11:14.634Z,-5.40
2019-02-23T05:13:47.878Z,-5.30
2019-02-23T05:16:21.337Z,-5.30
2019-02-23T05:18:55.229Z,-5.40
2019-02-23T05:21:28.967Z,-5.40
2019-02-23T05:24:02.147Z,-5.40
2019-02-23T05:26:35.633Z,-5.50
2019-02-23T05:29:09.244Z,-5.50
2019-02-23T05:31:42.746Z,-5.50
2019-02-23T05:34:16.262Z,-5.60
2019-02-23T05:36:49.393Z,-5.60
2019-02-23T05:39:22.464Z,-5.60
2019-02-23T05:41:55.823Z,-5.50
2019-02-23T05:44:29.471Z,-5.60
2019-02-23T05:47:02.781Z,-5.70
2019-02-23T05:49:37.120Z,-5.70
2019-02-23T05:52:10.971Z,-5.70
2019-02-23T05:54:45.284Z,-5.60
2019-02-23T05:57:18.761Z,-5.60
2019-02-23T05:59:52.115Z,-5.50
2019-02-23T06:02:25.676Z,-5.50
2019-02-23T06:05:00.843Z,-5.50
2019-02-23T06:07:34.035Z,-5.50
2019-02-23T06:10:09.719Z,-5.50
2019-02-23T06:12:43.429Z,-5.50
2019-02-23T06:15:16.839Z,-5.50
2019-02-23T06:17:51.961Z,-5.50
2019-02-23T06:20:25.163Z,-5.40
2019-02-23T06:22:58.827Z,-5.50
2019-02-23T06:25:32.205Z,-5.40
2019-02-23T06:28:05.640Z,-5.50
2019-02-23T06:30:38.569Z,-5.40
2019-02-23T06:33:11.282Z,-5.30
2019-02-23T06:35:43.988Z,-5.20
2019-02-23T06:38:16.786Z,-5.20
2019-02-23T06:40:49.829Z,-5.30
2019-02-23T06:43:22.709Z,-5.30
2019-02-23T06:45:55.274Z,-5.30
2019-02-23T06:48:27.631Z,-5.40
2019-02-23T06:51:03.795Z,-5.40
2019-02-23T06:53:36.438Z,-5.40
2019-02-23T06:56:09.226Z,-5.40
2019-02-23T07:43:27.124Z,-5.10
2019-02-23T07:46:02.445Z,-4.60
2019-02-23T07:48:35.866Z,-4.50
2019-02-23T07:51:09.244Z,-4.30
2019-02-23T07:53:42.384Z,-4.30
2019-02-23T07:56:18.565Z,-4.30
2019-02-23T07:58:53.054Z,-4.30
2019-02-23T08:01:26.210Z,-4.00
2019-02-23T08:03:59.414Z,-3.80
2019-02-23T08:06:32.103Z,-3.90
2019-02-23T08:09:33.194Z,-4.00
2019-02-23T08:12:06.516Z,-3.70
2019-02-23T08:14:41.209Z,-3.80
2019-02-23T08:17:14.767Z,-3.70
2019-02-23T08:19:48.473Z,-3.90
2019-02-23T08:22:23.705Z,-4.00
2019-02-23T08:24:59.241Z,-3.80
2019-02-23T08:27:33.673Z,-3.90
2019-02-23T08:30:08.820Z,-3.80
2019-02-23T08:32:44.476Z,-3.90
2019-02-23T08:35:17.522Z,-3.90
2019-02-23T08:37:51.038Z,-3.70
2019-02-23T08:40:24.478Z,-3.80
2019-02-23T08:42:57.528Z,-3.90
2019-02-23T08:45:31.489Z,-3.80
2019-02-23T08:48:05.612Z,-3.80
2019-02-23T08:50:38.849Z,-3.90
2019-02-23T08:53:12.536Z,-3.80
2019-02-23T08:55:50.283Z,-3.70
2019-02-23T08:58:23.656Z,-3.70
2019-02-23T09:00:57.467Z,-3.70
2019-02-23T09:03:30.641Z,-3.70
2019-02-23T09:06:03.972Z,-3.90
2019-02-23T09:08:37.185Z,-3.80
2019-02-23T09:11:10.573Z,-3.70
2019-02-23T09:13:43.602Z,-3.50
2019-02-23T09:16:17.390Z,-3.60
2019-02-23T09:18:54.276Z,-3.50
2019-02-23T09:21:28.027Z,-3.40
2019-02-23T09:24:01.529Z,-3.40
2019-02-23T09:26:35.413Z,-3.30
2019-02-23T09:29:08.787Z,-3.20
2019-02-23T09:31:42.364Z,-3.10
2019-02-23T09:34:16.024Z,-3.30
2019-02-23T09:36:51.443Z,-3.40
2019-02-23T09:39:28.546Z,-3.40
2019-02-23T09:42:07.440Z,-3.60
2019-02-23T09:44:37.527Z,-3.40
2019-02-23T09:47:10.862Z,-3.40
2019-02-23T09:49:44.397Z,-3.30
2019-02-23T09:52:17.501Z,-3.00
2019-02-23T09:54:51.032Z,-3.00
2019-02-23T09:57:24.847Z,-3.00
2019-02-23T09:59:58.578Z,-3.00
2019-02-23T10:02:32.303Z,-2.90
2019-02-23T10:05:08.809Z,-2.90
2019-02-23T10:07:42.479Z,-2.90
2019-02-23T10:10:16.110Z,-2.90
2019-02-23T10:12:50.720Z,-3.00
2019-02-23T10:15:24.404Z,-3.00
2019-02-23T10:17:58.008Z,-2.90
2019-02-23T10:20:31.559Z,-2.80
2019-02-23T10:23:05.188Z,-2.70
2019-02-23T10:25:38.655Z,-3.10
2019-02-23T10:28:11.740Z,-3.00
2019-02-23T10:30:45.120Z,-3.00
2019-02-23T10:33:19.017Z,-2.90
2019-02-23T10:35:52.574Z,-3.00
2019-02-23T10:38:26.129Z,-3.10
2019-02-23T10:40:59.879Z,-2.90
2019-02-23T10:43:34.304Z,-2.70
2019-02-23T10:46:07.678Z,-2.70
2019-02-23T10:48:41.465Z,-2.70
2019-02-23T10:51:15.107Z,-2.70
2019-02-23T10:53:48.862Z,-2.70
2019-02-23T10:56:22.188Z,-2.80
2019-02-23T10:58:55.959Z,-2.80
2019-02-23T11:01:29.472Z,-2.60
2019-02-23T11:04:02.791Z,-2.60
2019-02-23T11:06:38.257Z,-2.70
2019-02-23T11:09:19.167Z,-2.70
2019-02-23T11:11:52.964Z,-2.80
2019-02-23T11:14:26.172Z,-3.00
2019-02-23T11:16:59.772Z,-2.90
2019-02-23T11:19:33.220Z,-2.90
2019-02-23T11:22:10.385Z,-3.00
2019-02-23T11:24:43.926Z,-2.90
2019-02-23T11:27:17.036Z,-2.90
2019-02-23T11:29:50.472Z,-2.70
2019-02-23T11:32:23.976Z,-2.70
2019-02-23T11:34:57.447Z,-2.70
2019-02-23T11:37:30.339Z,-2.60
2019-02-23T11:40:03.717Z,-2.70
2019-02-23T11:42:37.213Z,-2.70
2019-02-23T11:45:11.211Z,-2.80
2019-02-23T11:47:44.576Z,-2.80
2019-02-23T11:50:20.003Z,-2.70
2019-02-23T11:52:53.278Z,-2.70
2019-02-23T11:55:27.711Z,-2.60
2019-02-23T11:58:02.820Z,-2.80
2019-02-23T12:00:36.352Z,-2.70
2019-02-23T12:03:10.743Z,-2.70
2019-02-23T12:05:46.852Z,-2.70
2019-02-23T12:08:21.273Z,-2.60
2019-02-23T12:10:57.017Z,-2.50
2019-02-23T12:13:31.216Z,-2.40
2019-02-23T12:16:06.922Z,-2.20
2019-02-23T12:18:43.935Z,-2.00
2019-02-23T12:21:24.314Z,-1.80
2019-02-23T12:24:06.070Z,-2.10
2019-02-23T12:26:36.486Z,-2.30
2019-02-23T12:29:09.668Z,-2.40
2019-02-23T12:31:43.845Z,-2.50
2019-02-23T12:34:19.067Z,-2.60
2019-02-23T12:36:57.589Z,-2.70
2019-02-23T12:39:31.345Z,-2.50
2019-02-23T12:42:08.311Z,-2.30
2019-02-23T12:44:41.840Z,-2.30
2019-02-23T12:47:22.178Z,-2.20
2019-02-23T12:49:59.685Z,-2.20
2019-02-23T12:52:33.615Z,-2.20
2019-02-23T12:55:20.590Z,-2.00
2019-02-23T12:57:54.185Z,-1.90
2019-02-23T13:00:31.635Z,-2.10
2019-02-23T13:03:05.575Z,-2.10
2019-02-23T13:05:39.016Z,-2.10
2019-02-23T13:08:13.380Z,-2.10
2019-02-23T13:10:52.063Z,-2.10
2019-02-23T13:14:16.692Z,-2.10
2019-02-23T13:18:03.221Z,-2.20
2019-02-23T13:21:17.603Z,-2.60
2019-02-23T13:24:59.713Z,-3.00
2019-02-23T13:28:50.088Z,-3.00
2019-02-23T13:31:58.998Z,-3.10
2019-02-23T13:35:28.038Z,-3.20
2019-02-23T13:38:53.084Z,-3.00
2019-02-23T13:42:27.278Z,-3.00
2019-02-23T13:46:12.361Z,-3.20
2019-02-23T13:49:43.977Z,-3.10
2019-02-23T13:53:33.710Z,-2.90
2019-02-23T13:56:59.714Z,-2.90
2019-02-23T14:00:55.152Z,-3.10
2019-02-23T14:04:30.003Z,-3.10
2019-02-23T14:08:05.336Z,-3.10
2019-02-23T14:11:17.757Z,-3.30
2019-02-23T14:14:38.116Z,-3.30
2019-02-23T14:17:58.009Z,-3.30
2019-02-23T14:21:24.142Z,-3.20
2019-02-23T14:25:00.364Z,-3.10
2019-02-23T14:28:41.422Z,-3.30
2019-02-23T14:31:55.338Z,-3.40
2019-02-23T14:35:19.195Z,-3.40
2019-02-23T14:38:54.768Z,-3.40
2019-02-23T14:42:08.861Z,-3.60
2019-02-23T14:45:39.880Z,-3.60
2019-02-23T14:49:24.170Z,-3.50
2019-02-23T14:53:16.084Z,-3.70
2019-02-23T14:56:31.946Z,-3.70
2019-02-23T14:59:59.811Z,-3.60
2019-02-23T15:03:35.172Z,-3.60
2019-02-23T15:07:08.844Z,-3.70
2019-02-23T15:10:48.637Z,-3.70
2019-02-23T15:14:07.962Z,-3.90
2019-02-23T15:17:46.069Z,-4.10
2019-02-23T15:21:08.160Z,-4.10
2019-02-23T15:24:28.253Z,-4.10
2019-02-23T15:28:12.101Z,-4.20
2019-02-23T15:31:37.539Z,-4.10
2019-02-23T15:34:58.062Z,-4.20
2019-02-23T15:38:21.722Z,-4.30
2019-02-23T15:42:27.606Z,-4.40
2019-02-23T15:46:13.914Z,-4.50
2019-02-23T15:49:36.747Z,-4.50
2019-02-23T15:52:10.850Z,-4.70
2019-02-23T15:54:44.461Z,-4.70
2019-02-23T15:57:17.553Z,-4.70
2019-02-23T15:59:51.055Z,-4.80
2019-02-23T16:02:24.540Z,-4.80
2019-02-23T16:04:58.018Z,-4.90
2019-02-23T16:07:31.572Z,-4.90
2019-02-23T16:10:04.838Z,-5.00
2019-02-23T16:12:38.327Z,-5.10
2019-02-23T16:15:12.833Z,-5.20
2019-02-23T16:17:50.302Z,-5.30
2019-02-23T16:20:23.967Z,-5.30
2019-02-23T16:22:57.243Z,-5.30
2019-02-23T16:25:38.361Z,-5.30
2019-02-23T16:28:09.310Z,-5.40
2019-02-23T16:30:42.947Z,-5.40
2019-02-23T16:33:17.128Z,-5.40
2019-02-23T16:35:50.587Z,-5.40
2019-02-23T16:38:26.982Z,-5.40
2019-02-23T16:41:17.647Z,-5.40
2019-02-23T16:43:51.983Z,-5.50
2019-02-23T16:46:26.288Z,-5.60
2019-02-23T16:49:10.247Z,-5.60
2019-02-23T16:51:43.760Z,-5.60
2019-02-23T16:54:22.694Z,-5.70
2019-02-23T16:56:56.706Z,-5.60
2019-02-23T16:59:33.501Z,-5.60
2019-02-23T17:02:07.160Z,-5.60
2019-02-23T17:04:53.022Z,-5.70
2019-02-23T17:07:18.444Z,-5.70
2019-02-23T17:09:51.985Z,-5.70
2019-02-23T17:12:26.053Z,-5.70
2019-02-23T17:15:02.451Z,-5.70
2019-02-23T17:17:38.560Z,-5.70
2019-02-23T17:20:12.836Z,-5.80
2019-02-23T17:22:47.550Z,-5.80
2019-02-23T17:25:20.921Z,-5.80
2019-02-23T17:27:54.167Z,-5.80
2019-02-23T17:30:27.527Z,-5.80
2019-02-23T17:33:01.135Z,-5.80
2019-02-23T17:35:34.767Z,-5.80
2019-02-23T17:38:16.129Z,-5.80
2019-02-23T17:40:43.676Z,-5.90
2019-02-23T17:43:20.140Z,-5.90
2019-02-23T17:45:53.600Z,-5.90
2019-02-23T17:48:27.680Z,-5.90
2019-02-23T17:51:02.053Z,-5.90
2019-02-23T17:53:35.691Z,-5.90
2019-02-23T17:56:12.332Z,-5.90
2019-02-23T17:58:44.602Z,-6.00
2019-02-23T18:01:20.677Z,-6.00
2019-02-23T18:03:54.058Z,-6.00
2019-02-23T18:06:27.433Z,-6.00
2019-02-23T18:09:01.212Z,-5.90
2019-02-23T18:11:35.339Z,-5.90
2019-02-23T18:14:09.598Z,-5.90
2019-02-23T18:16:45.198Z,-6.00
2019-02-23T18:19:18.622Z,-6.00
2019-02-23T18:24:57.735Z,-6.00
2019-02-23T18:27:31.446Z,-6.00
2019-02-23T18:30:12.356Z,-6.00
2019-02-23T18:32:39.956Z,-6.10
2019-02-23T18:35:15.146Z,-6.10
2019-02-23T18:37:48.512Z,-6.10
2019-02-23T18:40:21.736Z,-6.10
2019-02-23T18:42:55.665Z,-6.10
2019-02-23T18:45:29.118Z,-6.20
2019-02-23T18:48:02.267Z,-6.20
2019-02-23T18:50:35.752Z,-6.10
2019-02-23T18:53:09.299Z,-6.10
2019-02-23T18:55:42.992Z,-6.20
2019-02-23T18:58:16.677Z,-6.20
2019-02-23T19:00:52.008Z,-6.20
2019-02-23T19:03:25.681Z,-6.20
2019-02-23T19:05:58.760Z,-6.10
2019-02-23T19:08:32.012Z,-6.20
2019-02-23T19:11:05.598Z,-6.20
2019-02-23T19:13:39.556Z,-6.20
2019-02-23T19:16:13.673Z,-6.20
2019-02-23T19:18:46.967Z,-6.10
2019-02-23T19:21:20.010Z,-6.20
2019-02-23T19:23:53.476Z,-6.20
2019-02-23T19:26:26.905Z,-6.20
2019-02-23T19:29:00.271Z,-6.20
2019-02-23T19:31:33.360Z,-6.20
2019-02-23T19:34:07.063Z,-6.20
2019-02-23T19:36:40.573Z,-6.20
2019-02-23T19:39:13.717Z,-6.20
2019-02-23T19:41:47.461Z,-6.30
2019-02-23T19:44:20.874Z,-6.20
2019-02-23T19:47:09.999Z,-6.30
2019-02-23T19:49:43.479Z,-6.30
2019-02-23T19:52:19.328Z,-6.20
2019-02-23T19:54:52.394Z,-6.20
2019-02-23T19:57:25.723Z,-6.20
2019-02-23T19:59:59.183Z,-6.20
2019-02-23T20:02:32.651Z,-6.20
2019-02-23T20:05:06.514Z,-6.30
2019-02-23T20:07:39.824Z,-6.20
2019-02-23T20:10:15.838Z,-6.20
2019-02-23T20:12:48.789Z,-6.30
2019-02-23T20:15:22.259Z,-6.20
2019-02-23T20:17:56.130Z,-6.30
2019-02-23T20:20:31.610Z,-6.30
2019-02-23T20:23:07.589Z,-6.30
2019-02-23T20:25:41.726Z,-6.30
2019-02-23T20:28:15.482Z,-6.30
2019-02-23T20:30:50.292Z,-6.30
2019-02-23T20:33:23.853Z,-6.30
2019-02-23T20:35:57.657Z,-6.30
2019-02-23T20:38:31.295Z,-6.40
2019-02-23T20:41:05.345Z,-6.40
2019-02-23T20:43:38.728Z,-6.40
2019-02-23T20:46:12.231Z,-6.40
2019-02-23T20:48:46.818Z,-6.50
2019-02-23T20:51:20.248Z,-6.50
2019-02-23T20:53:53.971Z,-6.40
2019-02-23T20:56:27.477Z,-6.40
2019-02-23T20:59:01.587Z,-6.40
2019-02-23T21:01:36.709Z,-6.50
2019-02-23T21:04:09.694Z,-6.50
2019-02-23T21:06:42.574Z,-6.50
2019-02-23T21:09:15.836Z,-6.40
2019-02-23T21:11:48.633Z,-6.50
2019-02-23T21:14:21.365Z,-6.50
2019-02-23T21:16:54.435Z,-6.40
2019-02-23T21:19:27.190Z,-6.40
2019-02-23T21:22:00.248Z,-6.40
2019-02-23T21:24:36.042Z,-6.40
2019-02-23T21:27:12.942Z,-6.40
2019-02-23T21:29:43.037Z,-6.40
2019-02-23T21:32:16.071Z,-6.40
2019-02-23T21:34:48.827Z,-6.40
2019-02-23T21:37:22.205Z,-6.50
2019-02-23T21:39:55.445Z,-6.50
2019-02-23T21:42:28.375Z,-6.50
2019-02-23T21:45:00.999Z,-6.50
2019-02-23T21:47:33.536Z,-6.50
2019-02-23T21:50:06.222Z,-6.50
2019-02-23T21:52:40.907Z,-6.50
2019-02-23T21:55:13.622Z,-6.50
2019-02-23T21:57:46.145Z,-6.60
2019-02-23T22:00:18.732Z,-6.60
2019-02-23T22:02:51.162Z,-6.60
2019-02-23T22:05:24.086Z,-6.60
2019-02-23T22:07:56.762Z,-6.60
2019-02-23T22:10:29.454Z,-6.60
2019-02-23T22:13:02.022Z,-6.60
2019-02-23T22:15:34.277Z,-6.70
2019-02-23T22:18:06.810Z,-6.60
2019-02-23T22:20:39.368Z,-6.60
2019-02-23T22:23:12.265Z,-6.60
2019-02-23T22:25:44.845Z,-6.60
2019-02-23T22:28:17.585Z,-6.50
2019-02-23T22:30:49.966Z,-6.50
2019-02-23T22:33:22.708Z,-6.50
2019-02-23T22:35:55.074Z,-6.50
2019-02-23T22:38:27.523Z,-6.60
2019-02-23T22:40:59.766Z,-6.50
2019-02-23T22:43:32.102Z,-6.60
2019-02-23T22:46:04.338Z,-6.60
2019-02-23T22:48:36.629Z,-6.70
2019-02-23T22:51:09.220Z,-6.70
2019-02-23T22:53:41.530Z,-6.80
2019-02-23T22:56:14.017Z,-6.90
2019-02-23T22:58:46.315Z,-6.90
2019-02-23T23:01:21.028Z,-6.90
2019-02-23T23:03:53.256Z,-7.00
2019-02-23T23:06:25.651Z,-7.00
2019-02-23T23:08:58.073Z,-7.00
2019-02-23T23:11:30.599Z,-7.00
2019-02-23T23:14:02.942Z,-6.90
2019-02-23T23:16:35.264Z,-6.90
2019-02-23T23:19:07.696Z,-6.90
2019-02-23T23:21:40.027Z,-6.90
2019-02-23T23:24:12.876Z,-6.90
2019-02-23T23:26:45.260Z,-6.80
2019-02-23T23:29:17.568Z,-6.90
2019-02-23T23:31:50.225Z,-6.90
2019-02-23T23:34:22.560Z,-6.80
2019-02-23T23:36:54.881Z,-6.90
2019-02-23T23:39:27.526Z,-6.90
2019-02-23T23:41:59.876Z,-6.90
2019-02-23T23:44:32.354Z,-6.90
2019-02-23T23:47:04.885Z,-6.90
2019-02-23T23:49:37.129Z,-6.90
2019-02-23T23:52:09.538Z,-6.90
2019-02-23T23:54:41.908Z,-6.90
2019-02-23T23:57:14.177Z,-6.90
2019-02-23T23:59:46.439Z,-6.90
